createdAt,value
2019-01-22T00:00:26.584Z,-2.29
2019-01-22T00:02:54.246Z,-2.28
2019-01-22T00:05:21.731Z,-2.38
2019-01-22T00:07:49.193Z,-2.33
2019-01-22T00:10:16.681Z,-2.25
2019-01-22T00:12:44.183Z,-2.29
2019-01-22T00:15:11.797Z,-2.35
2019-01-22T00:17:39.602Z,-2.32
2019-01-22T00:20:07.683Z,-2.40
2019-01-22T00:22:35.642Z,-2.52
2019-01-22T00:25:03.859Z,-2.50
2019-01-22T00:27:31.354Z,-2.63
2019-01-22T00:29:58.949Z,-2.68
2019-01-22T00:32:26.610Z,-2.63
2019-01-22T00:34:54.073Z,-2.56
2019-01-22T00:37:21.475Z,-2.55
2019-01-22T00:39:48.918Z,-2.68
2019-01-22T00:42:16.379Z,-2.68
2019-01-22T00:44:43.866Z,-2.71
2019-01-22T00:47:11.252Z,-2.84
2019-01-22T00:49:38.982Z,-2.93
2019-01-22T00:52:06.419Z,-2.90
2019-01-22T00:54:33.894Z,-2.86
2019-01-22T00:57:01.382Z,-2.87
2019-01-22T00:59:28.815Z,-2.82
2019-01-22T01:01:56.239Z,-2.84
2019-01-22T01:04:23.618Z,-2.87
2019-01-22T01:06:51.091Z,-2.84
2019-01-22T01:09:18.458Z,-2.86
2019-01-22T01:11:45.922Z,-2.78
2019-01-22T01:14:13.298Z,-2.78
2019-01-22T01:16:40.795Z,-2.80
2019-01-22T01:19:08.586Z,-2.75
2019-01-22T01:21:35.946Z,-2.64
2019-01-22T01:24:03.590Z,-2.67
2019-01-22T01:26:31.062Z,-2.54
2019-01-22T01:28:58.438Z,-2.48
2019-01-22T01:31:25.791Z,-2.50
2019-01-22T01:33:53.150Z,-2.57
2019-01-22T01:36:20.545Z,-2.54
2019-01-22T01:38:47.994Z,-2.57
2019-01-22T01:41:15.479Z,-2.60
2019-01-22T01:43:42.969Z,-2.70
2019-01-22T01:46:10.445Z,-2.68
2019-01-22T01:48:37.901Z,-2.79
2019-01-22T01:51:05.604Z,-2.73
2019-01-22T01:53:33.063Z,-2.78
2019-01-22T01:56:00.565Z,-2.92
2019-01-22T01:58:28.226Z,-2.79
2019-01-22T02:00:55.585Z,-2.75
2019-01-22T02:03:22.934Z,-2.57
2019-01-22T02:05:50.302Z,-2.52
2019-01-22T02:08:17.674Z,-2.61
2019-01-22T02:10:45.247Z,-2.64
2019-01-22T02:13:30.100Z,-2.63
2019-01-22T02:16:21.735Z,-2.60
2019-01-22T02:18:52.259Z,-2.50
2019-01-22T02:21:42.561Z,-2.28
2019-01-22T02:24:38.729Z,-2.27
2019-01-22T02:27:25.702Z,-2.44
2019-01-22T02:30:12.650Z,-2.46
2019-01-22T02:32:46.426Z,-2.44
2019-01-22T02:35:33.147Z,-2.41
2019-01-22T02:38:29.375Z,-2.38
2019-01-22T02:41:02.725Z,-2.34
2019-01-22T02:43:41.173Z,-2.37
2019-01-22T02:46:20.322Z,-2.33
2019-01-22T02:49:16.474Z,-2.28
2019-01-22T02:52:12.435Z,-2.25
2019-01-22T02:54:59.413Z,-2.26
2019-01-22T02:57:55.192Z,-2.22
2019-01-22T03:00:42.160Z,-2.22
2019-01-22T03:03:23.988Z,-2.22
2019-01-22T03:05:54.631Z,-2.31
2019-01-22T03:08:40.295Z,-2.18
2019-01-22T03:11:27.270Z,-1.92
2019-01-22T03:14:20.261Z,-1.85
2019-01-22T03:17:05.929Z,-2.07
2019-01-22T03:19:51.499Z,-2.23
2019-01-22T03:22:38.517Z,-2.16
2019-01-22T03:25:24.308Z,-2.29
2019-01-22T03:27:53.770Z,-2.29
2019-01-22T03:30:46.383Z,-2.21
2019-01-22T03:33:33.352Z,-2.24
2019-01-22T03:36:23.340Z,-2.25
2019-01-22T03:38:54.456Z,-2.34
2019-01-22T03:41:57.052Z,-2.36
2019-01-22T03:44:55.977Z,-2.32
2019-01-22T03:47:30.454Z,-2.33
2019-01-22T03:50:17.417Z,-2.30
2019-01-22T03:53:01.302Z,-2.24
2019-01-22T03:55:51.163Z,-2.24
2019-01-22T03:58:18.558Z,-2.20
2019-01-22T04:00:48.348Z,-2.18
2019-01-22T04:03:16.833Z,-2.17
2019-01-22T04:05:45.606Z,-2.17
2019-01-22T04:08:12.975Z,-2.24
2019-01-22T04:10:42.959Z,-2.23
2019-01-22T04:13:10.446Z,-2.24
2019-01-22T04:15:39.109Z,-2.21
2019-01-22T04:18:06.498Z,-2.25
2019-01-22T04:20:34.103Z,-2.22
2019-01-22T04:23:06.758Z,-2.15
2019-01-22T04:25:40.691Z,-2.18
2019-01-22T04:28:15.250Z,-2.22
2019-01-22T04:31:20.560Z,-2.16
2019-01-22T04:34:09.526Z,-2.13
2019-01-22T04:37:11.558Z,-2.16
2019-01-22T04:40:04.384Z,-2.12
2019-01-22T04:42:54.134Z,-2.10
2019-01-22T04:45:41.005Z,-2.13
2019-01-22T04:48:33.941Z,-2.09
2019-01-22T04:51:19.311Z,-2.05
2019-01-22T04:53:54.032Z,-2.14
2019-01-22T04:56:34.771Z,-2.09
2019-01-22T04:59:10.351Z,-2.07
2019-01-22T05:02:09.452Z,-2.14
2019-01-22T05:04:45.802Z,-2.07
2019-01-22T05:07:16.466Z,-2.10
2019-01-22T05:10:12.580Z,-2.03
2019-01-22T05:12:54.671Z,-2.04
2019-01-22T05:15:45.167Z,-1.96
2019-01-22T05:18:32.139Z,-1.97
2019-01-22T05:21:17.846Z,-2.03
2019-01-22T05:23:57.926Z,-2.05
2019-01-22T05:26:39.720Z,-2.04
2019-01-22T05:29:26.596Z,-2.02
2019-01-22T05:32:00.847Z,-2.01
2019-01-22T05:34:56.501Z,-2.00
2019-01-22T05:37:46.553Z,-1.98
2019-01-22T05:40:45.627Z,-1.98
2019-01-22T05:43:44.620Z,-2.08
2019-01-22T05:46:23.681Z,-2.02
2019-01-22T05:49:10.592Z,-1.86
2019-01-22T05:51:46.139Z,-2.00
2019-01-22T05:54:29.178Z,-1.95
2019-01-22T05:57:17.587Z,-1.86
2019-01-22T05:59:51.327Z,-1.87
2019-01-22T06:02:21.426Z,-1.96
2019-01-22T06:05:06.634Z,-2.08
2019-01-22T06:07:55.686Z,-2.07
2019-01-22T06:10:45.417Z,-2.05
2019-01-22T06:13:24.383Z,-2.05
2019-01-22T06:16:04.723Z,-1.98
2019-01-22T06:18:54.196Z,-2.08
2019-01-22T06:21:56.218Z,-2.08
2019-01-22T06:24:35.730Z,-2.02
2019-01-22T06:27:08.205Z,-1.91
2019-01-22T06:29:45.123Z,-1.92
2019-01-22T06:32:19.162Z,-1.90
2019-01-22T06:34:54.955Z,-1.88
2019-01-22T06:37:25.633Z,-1.87
2019-01-22T06:39:55.351Z,-1.85
2019-01-22T06:42:34.175Z,-1.82
2019-01-22T06:45:15.229Z,-1.83
2019-01-22T06:48:00.935Z,-1.78
2019-01-22T06:50:53.883Z,-1.78
2019-01-22T06:53:33.032Z,-1.77
2019-01-22T06:56:22.707Z,-1.80
2019-01-22T06:58:57.356Z,-1.82
2019-01-22T07:01:38.630Z,-1.80
2019-01-22T07:04:28.501Z,-1.81
2019-01-22T07:07:18.160Z,-1.89
2019-01-22T07:10:00.291Z,-1.85
2019-01-22T07:12:46.567Z,-1.85
2019-01-22T07:15:39.517Z,-1.90
2019-01-22T07:18:32.462Z,-1.78
2019-01-22T07:21:26.620Z,-1.80
2019-01-22T07:24:12.394Z,-1.79
2019-01-22T07:27:02.079Z,-1.87
2019-01-22T07:29:35.637Z,-1.88
2019-01-22T07:32:31.514Z,-1.79
2019-01-22T07:35:20.557Z,-1.81
2019-01-22T07:38:07.482Z,-1.86
2019-01-22T07:40:55.733Z,-1.88
2019-01-22T07:43:54.846Z,-2.07
2019-01-22T07:46:38.075Z,-2.07
2019-01-22T07:49:12.218Z,-1.98
2019-01-22T07:52:08.154Z,-2.03
2019-01-22T07:54:53.656Z,-2.05
2019-01-22T07:57:41.082Z,-1.98
2019-01-22T08:00:13.636Z,-1.98
2019-01-22T08:02:54.156Z,-1.96
2019-01-22T08:05:42.891Z,-1.94
2019-01-22T08:08:43.075Z,-1.90
2019-01-22T08:11:28.757Z,-1.99
2019-01-22T08:14:14.531Z,-1.93
2019-01-22T08:17:14.039Z,-1.93
2019-01-22T08:19:45.976Z,-1.89
2019-01-22T08:22:31.679Z,-1.94
2019-01-22T08:25:07.082Z,-1.92
2019-01-22T08:27:47.516Z,-1.91
2019-01-22T08:30:43.327Z,-1.83
2019-01-22T08:33:15.397Z,-2.00
2019-01-22T08:36:17.597Z,-1.98
2019-01-22T08:39:04.910Z,-2.05
2019-01-22T08:41:51.785Z,-2.00
2019-01-22T08:44:32.835Z,-1.91
2019-01-22T08:47:22.857Z,-1.89
2019-01-22T08:50:09.701Z,-1.88
2019-01-22T08:52:56.613Z,-1.76
2019-01-22T08:55:42.275Z,-1.81
2019-01-22T08:58:28.082Z,-1.79
2019-01-22T09:01:13.690Z,-1.75
2019-01-22T09:03:59.363Z,-1.73
2019-01-22T09:06:45.161Z,-1.66
2019-01-22T09:09:31.167Z,-1.71
2019-01-22T09:12:16.709Z,-1.76
2019-01-22T09:15:15.786Z,-1.71
2019-01-22T09:18:17.866Z,-1.75
2019-01-22T09:20:54.108Z,-1.61
2019-01-22T09:23:40.967Z,-1.54
2019-01-22T09:26:37.251Z,-1.43
2019-01-22T09:29:11.723Z,-1.43
2019-01-22T09:31:45.073Z,-1.39
2019-01-22T09:34:32.123Z,-1.41
2019-01-22T09:37:18.033Z,-1.35
2019-01-22T09:39:45.491Z,-1.11
2019-01-22T09:42:12.924Z,-1.07
2019-01-22T09:44:40.608Z,-1.04
2019-01-22T09:47:08.054Z,-1.07
2019-01-22T09:49:35.486Z,-0.88
2019-01-22T09:52:03.323Z,-0.93
2019-01-22T09:54:30.726Z,-0.78
2019-01-22T09:56:58.158Z,-0.75
2019-01-22T09:59:25.518Z,-0.51
2019-01-22T10:01:52.980Z,-0.57
2019-01-22T10:04:20.469Z,-0.32
2019-01-22T10:06:47.816Z,-0.32
2019-01-22T10:09:15.185Z,-0.52
2019-01-22T10:11:42.611Z,-0.75
2019-01-22T10:14:10.066Z,-0.90
2019-01-22T10:16:37.432Z,-0.80
2019-01-22T10:19:04.866Z,-0.66
2019-01-22T10:21:32.338Z,-0.61
2019-01-22T10:23:59.722Z,-0.54
2019-01-22T10:26:27.056Z,-0.64
2019-01-22T10:28:54.438Z,-0.69
2019-01-22T10:31:21.846Z,-0.71
2019-01-22T10:33:49.203Z,-0.76
2019-01-22T10:36:16.547Z,-0.77
2019-01-22T10:38:44.026Z,-0.73
2019-01-22T10:41:11.387Z,-0.85
2019-01-22T10:43:38.798Z,-0.72
2019-01-22T10:46:06.164Z,-0.72
2019-01-22T10:48:33.559Z,-0.86
2019-01-22T10:51:00.903Z,-0.81
2019-01-22T10:53:28.295Z,-0.66
2019-01-22T10:55:55.753Z,-0.49
2019-01-22T10:58:23.111Z,-0.26
2019-01-22T11:00:50.555Z,-0.27
2019-01-22T11:03:17.955Z,-0.23
2019-01-22T11:05:45.453Z,-0.29
2019-01-22T11:08:13.092Z,-0.34
2019-01-22T11:10:40.476Z,-0.37
2019-01-22T11:13:07.849Z,-0.45
2019-01-22T11:15:35.314Z,-0.52
2019-01-22T11:18:03.137Z,-0.77
2019-01-22T11:20:30.772Z,-0.74
2019-01-22T11:22:58.195Z,-0.85
2019-01-22T11:25:26.747Z,-0.88
2019-01-22T11:27:54.131Z,-1.06
2019-01-22T11:30:22.054Z,-1.02
2019-01-22T11:32:49.537Z,-0.92
2019-01-22T11:35:17.480Z,-0.70
2019-01-22T11:37:44.914Z,-0.40
2019-01-22T11:40:20.183Z,-0.41
2019-01-22T11:42:48.002Z,-0.30
2019-01-22T11:45:15.379Z,-0.35
2019-01-22T11:47:42.766Z,-0.18
2019-01-22T11:50:11.832Z,-0.18
2019-01-22T11:52:39.211Z,-0.25
2019-01-22T11:55:06.613Z,-0.28
2019-01-22T11:57:33.985Z,-0.22
2019-01-22T12:00:01.376Z,-0.53
2019-01-22T12:02:32.113Z,-0.49
2019-01-22T12:04:58.055Z,-0.31
2019-01-22T12:07:25.423Z,-0.12
2019-01-22T12:09:52.831Z,-0.24
2019-01-22T12:12:20.293Z,-0.49
2019-01-22T12:14:47.674Z,-0.73
2019-01-22T12:17:15.045Z,-0.57
2019-01-22T12:19:42.414Z,-0.55
2019-01-22T12:22:09.811Z,-0.60
2019-01-22T12:24:37.150Z,-0.55
2019-01-22T12:27:04.870Z,-0.56
2019-01-22T12:29:32.249Z,-0.43
2019-01-22T12:31:59.639Z,-0.49
2019-01-22T12:34:27.017Z,-0.50
2019-01-22T12:36:54.369Z,-0.50
2019-01-22T12:39:21.731Z,-0.33
2019-01-22T12:41:49.167Z,-0.51
2019-01-22T12:44:16.601Z,-0.38
2019-01-22T12:46:43.981Z,-0.50
2019-01-22T12:49:11.375Z,-0.48
2019-01-22T12:51:38.739Z,-0.42
2019-01-22T12:54:06.102Z,-0.39
2019-01-22T12:56:33.499Z,-0.42
2019-01-22T12:59:00.875Z,-0.49
2019-01-22T13:01:28.371Z,-0.65
2019-01-22T13:03:55.853Z,-0.76
2019-01-22T13:06:23.277Z,-0.84
2019-01-22T13:08:50.654Z,-0.86
2019-01-22T13:11:17.998Z,-0.82
2019-01-22T13:13:45.385Z,-0.74
2019-01-22T13:16:12.804Z,-0.58
2019-01-22T13:18:40.242Z,-0.70
2019-01-22T13:21:07.609Z,-0.91
2019-01-22T13:23:34.966Z,-0.96
2019-01-22T13:26:02.455Z,-0.88
2019-01-22T13:28:29.801Z,-0.90
2019-01-22T13:30:57.154Z,-0.72
2019-01-22T13:33:24.534Z,-0.79
2019-01-22T13:35:52.186Z,-0.96
2019-01-22T13:38:19.770Z,-0.89
2019-01-22T13:40:47.119Z,-0.84
2019-01-22T13:43:14.477Z,-0.75
2019-01-22T13:45:41.878Z,-0.79
2019-01-22T13:48:11.139Z,-0.98
2019-01-22T13:50:38.637Z,-0.93
2019-01-22T13:53:06.089Z,-0.84
2019-01-22T13:55:34.510Z,-0.66
2019-01-22T13:58:02.004Z,-0.66
2019-01-22T14:00:29.403Z,-0.70
2019-01-22T14:02:57.190Z,-0.85
2019-01-22T14:05:24.666Z,-0.76
2019-01-22T14:07:52.132Z,-0.89
2019-01-22T14:10:19.518Z,-0.82
2019-01-22T14:12:47.223Z,-0.93
2019-01-22T14:15:16.148Z,-1.02
2019-01-22T14:17:43.531Z,-0.96
2019-01-22T14:20:11.235Z,-0.95
2019-01-22T14:22:38.621Z,-0.94
2019-01-22T14:25:07.174Z,-1.07
2019-01-22T14:27:34.956Z,-1.14
2019-01-22T14:30:02.302Z,-1.19
2019-01-22T14:32:29.742Z,-1.28
2019-01-22T14:34:57.154Z,-1.28
2019-01-22T14:37:24.508Z,-1.28
2019-01-22T14:39:51.856Z,-1.42
2019-01-22T14:42:19.345Z,-1.39
2019-01-22T14:44:46.711Z,-1.50
2019-01-22T14:47:14.106Z,-1.48
2019-01-22T14:49:41.471Z,-1.45
2019-01-22T14:52:08.805Z,-1.56
2019-01-22T14:54:36.226Z,-1.52
2019-01-22T14:57:03.714Z,-1.50
2019-01-22T14:59:31.072Z,-1.51
2019-01-22T15:01:58.750Z,-1.43
2019-01-22T15:04:26.234Z,-1.44
2019-01-22T15:06:53.647Z,-1.51
2019-01-22T15:09:21.056Z,-1.51
2019-01-22T15:11:48.437Z,-1.55
2019-01-22T15:14:15.862Z,-1.53
2019-01-22T15:16:43.260Z,-1.53
2019-01-22T15:19:10.871Z,-1.57
2019-01-22T15:21:38.323Z,-1.59
2019-01-22T15:24:05.746Z,-1.53
2019-01-22T15:26:39.200Z,-1.62
2019-01-22T15:29:02.457Z,-1.58
2019-01-22T15:31:29.910Z,-1.70
2019-01-22T15:33:57.344Z,-1.62
2019-01-22T15:36:24.865Z,-1.72
2019-01-22T15:38:52.238Z,-1.77
2019-01-22T15:41:19.643Z,-1.73
2019-01-22T15:43:47.168Z,-1.83
2019-01-22T15:46:14.527Z,-1.98
2019-01-22T15:48:41.932Z,-2.08
2019-01-22T15:51:09.647Z,-2.02
2019-01-22T15:53:37.015Z,-1.99
2019-01-22T15:56:04.610Z,-2.11
2019-01-22T15:58:31.968Z,-2.10
2019-01-22T16:00:59.338Z,-2.11
2019-01-22T16:03:26.697Z,-2.19
2019-01-22T16:05:54.210Z,-2.43
2019-01-22T16:08:21.583Z,-2.45
2019-01-22T16:10:49.242Z,-2.42
2019-01-22T16:13:16.659Z,-2.50
2019-01-22T16:15:44.039Z,-2.56
2019-01-22T16:18:11.436Z,-2.63
2019-01-22T16:20:38.786Z,-2.69
2019-01-22T16:23:06.209Z,-2.72
2019-01-22T16:25:34.965Z,-2.72
2019-01-22T16:28:02.459Z,-2.59
2019-01-22T16:30:30.816Z,-2.63
2019-01-22T16:32:58.303Z,-2.62
2019-01-22T16:35:26.273Z,-2.81
2019-01-22T16:37:53.682Z,-2.69
2019-01-22T16:40:21.171Z,-2.78
2019-01-22T16:42:48.786Z,-2.77
2019-01-22T16:45:20.668Z,-3.00
2019-01-22T16:47:48.126Z,-2.82
2019-01-22T16:50:15.555Z,-2.80
2019-01-22T16:52:42.964Z,-2.85
2019-01-22T16:55:12.160Z,-3.05
2019-01-22T16:57:39.691Z,-3.11
2019-01-22T17:00:09.207Z,-3.27
2019-01-22T17:02:40.047Z,-3.32
2019-01-22T17:05:07.651Z,-3.41
2019-01-22T17:07:35.091Z,-3.52
2019-01-22T17:10:03.219Z,-3.55
2019-01-22T17:12:30.636Z,-3.41
2019-01-22T17:14:58.029Z,-3.43
2019-01-22T17:17:25.498Z,-3.38
2019-01-22T17:19:52.988Z,-3.39
2019-01-22T17:22:20.510Z,-3.51
2019-01-22T17:24:47.911Z,-3.71
2019-01-22T17:27:15.387Z,-3.79
2019-01-22T17:29:42.808Z,-3.86
2019-01-22T17:32:29.713Z,-3.91
2019-01-22T17:35:00.669Z,-3.87
2019-01-22T17:37:28.202Z,-3.88
2019-01-22T17:39:55.704Z,-3.94
2019-01-22T17:42:23.114Z,-3.79
2019-01-22T17:44:50.603Z,-3.83
2019-01-22T17:47:18.130Z,-3.72
2019-01-22T17:49:45.487Z,-3.62
2019-01-22T17:52:12.898Z,-3.53
2019-01-22T17:54:40.459Z,-3.49
2019-01-22T17:57:13.676Z,-3.52
2019-01-22T17:59:37.132Z,-3.73
2019-01-22T18:02:04.566Z,-3.82
2019-01-22T18:04:32.079Z,-3.80
2019-01-22T18:06:59.512Z,-3.85
2019-01-22T18:09:27.046Z,-3.98
2019-01-22T18:11:54.546Z,-4.08
2019-01-22T18:14:22.091Z,-4.17
2019-01-22T18:16:49.535Z,-4.29
2019-01-22T18:19:16.931Z,-4.28
2019-01-22T18:21:44.321Z,-4.21
2019-01-22T18:24:11.731Z,-4.28
2019-01-22T18:26:39.249Z,-4.41
2019-01-22T18:29:06.727Z,-4.38
2019-01-22T18:31:34.239Z,-4.50
2019-01-22T18:34:01.622Z,-4.59
2019-01-22T18:36:29.141Z,-4.62
2019-01-22T18:38:56.603Z,-4.53
2019-01-22T18:41:24.066Z,-4.63
2019-01-22T18:43:51.493Z,-4.50
2019-01-22T18:46:18.999Z,-4.53
2019-01-22T18:48:46.475Z,-4.61
2019-01-22T18:51:15.282Z,-4.50
2019-01-22T18:53:42.795Z,-4.53
2019-01-22T18:56:10.191Z,-4.59
2019-01-22T18:58:37.629Z,-4.67
2019-01-22T19:01:05.108Z,-4.66
2019-01-22T19:03:32.494Z,-4.69
2019-01-22T19:06:00.065Z,-4.72
2019-01-22T19:08:27.492Z,-4.71
2019-01-22T19:10:55.026Z,-4.73
2019-01-22T19:13:22.460Z,-4.75
2019-01-22T19:15:49.874Z,-4.75
2019-01-22T19:18:17.387Z,-4.65
2019-01-22T19:20:44.840Z,-4.45
2019-01-22T19:23:12.280Z,-4.46
2019-01-22T19:25:39.687Z,-4.42
2019-01-22T19:28:07.130Z,-4.38
2019-01-22T19:30:34.548Z,-4.37
2019-01-22T19:33:02.026Z,-4.52
2019-01-22T19:35:29.498Z,-4.68
2019-01-22T19:37:57.342Z,-4.68
2019-01-22T19:40:24.851Z,-4.71
2019-01-22T19:42:52.304Z,-4.62
2019-01-22T19:45:24.063Z,-4.51
2019-01-22T19:47:51.559Z,-4.48
2019-01-22T19:50:19.158Z,-4.57
2019-01-22T19:52:46.618Z,-4.63
2019-01-22T19:55:14.125Z,-4.62
2019-01-22T19:57:41.656Z,-4.52
2019-01-22T20:00:11.690Z,-4.53
2019-01-22T20:02:39.180Z,-4.52
2019-01-22T20:05:06.991Z,-4.57
2019-01-22T20:07:34.487Z,-4.62
2019-01-22T20:10:01.937Z,-4.58
2019-01-22T20:12:29.456Z,-4.51
2019-01-22T20:14:56.866Z,-4.62
2019-01-22T20:17:24.411Z,-4.65
2019-01-22T20:19:51.937Z,-4.59
2019-01-22T20:22:19.475Z,-4.57
2019-01-22T20:24:48.849Z,-4.58
2019-01-22T20:27:16.266Z,-4.63
2019-01-22T20:29:43.783Z,-4.65
2019-01-22T20:32:11.200Z,-4.64
2019-01-22T20:34:38.607Z,-4.66
2019-01-22T20:37:06.098Z,-4.71
2019-01-22T20:39:33.602Z,-4.68
2019-01-22T20:42:00.986Z,-4.80
2019-01-22T20:44:28.392Z,-4.88
2019-01-22T20:46:55.830Z,-4.92
2019-01-22T20:49:23.250Z,-4.92
2019-01-22T20:51:50.770Z,-4.94
2019-01-22T20:54:18.191Z,-4.95
2019-01-22T20:56:45.712Z,-4.83
2019-01-22T20:59:13.099Z,-4.82
2019-01-22T21:01:40.586Z,-4.84
2019-01-22T21:04:07.953Z,-4.95
2019-01-22T21:06:35.358Z,-5.01
2019-01-22T21:09:04.864Z,-4.96
2019-01-22T21:11:32.216Z,-4.94
2019-01-22T21:13:59.683Z,-4.86
2019-01-22T21:16:27.065Z,-4.88
2019-01-22T21:18:54.594Z,-4.94
2019-01-22T21:21:22.015Z,-5.01
2019-01-22T21:23:49.567Z,-5.04
2019-01-22T21:26:17.055Z,-5.08
2019-01-22T21:28:44.484Z,-5.13
2019-01-22T21:31:11.887Z,-5.12
2019-01-22T21:33:39.311Z,-5.17
2019-01-22T21:36:06.772Z,-5.21
2019-01-22T21:38:34.196Z,-5.27
2019-01-22T21:41:01.683Z,-5.30
2019-01-22T21:43:29.054Z,-5.36
2019-01-22T21:45:56.765Z,-5.41
2019-01-22T21:48:24.199Z,-5.33
2019-01-22T21:50:51.694Z,-5.31
2019-01-22T21:53:19.199Z,-5.36
2019-01-22T21:55:46.681Z,-5.44
2019-01-22T21:58:14.168Z,-5.51
2019-01-22T22:00:41.641Z,-5.54
2019-01-22T22:03:09.023Z,-5.57
2019-01-22T22:05:36.439Z,-5.64
2019-01-22T22:08:05.261Z,-5.74
2019-01-22T22:10:32.754Z,-5.79
2019-01-22T22:13:00.123Z,-5.76
2019-01-22T22:15:27.513Z,-5.67
2019-01-22T22:17:54.961Z,-5.68
2019-01-22T22:20:22.407Z,-5.70
2019-01-22T22:22:49.781Z,-5.68
2019-01-22T22:25:18.027Z,-5.65
2019-01-22T22:27:45.450Z,-5.57
2019-01-22T22:30:14.435Z,-5.55
2019-01-22T22:32:42.162Z,-5.51
2019-01-22T22:35:11.195Z,-5.54
2019-01-22T22:37:38.647Z,-5.51
2019-01-22T22:40:06.838Z,-5.55
2019-01-22T22:42:34.263Z,-5.56
2019-01-22T22:45:01.642Z,-5.58
2019-01-22T22:47:29.019Z,-5.66
2019-01-22T22:49:56.628Z,-5.82
2019-01-22T22:52:24.006Z,-5.91
2019-01-22T22:54:51.461Z,-5.95
2019-01-22T22:57:18.863Z,-6.00
2019-01-22T22:59:46.244Z,-5.86
2019-01-22T23:02:13.703Z,-5.83
2019-01-22T23:04:41.068Z,-5.89
2019-01-22T23:07:08.452Z,-6.00
2019-01-22T23:09:35.842Z,-6.03
2019-01-22T23:12:03.630Z,-5.84
2019-01-22T23:14:31.012Z,-5.99
2019-01-22T23:16:58.399Z,-5.99
2019-01-22T23:19:25.765Z,-5.99
2019-01-22T23:21:53.225Z,-6.13
2019-01-22T23:24:20.598Z,-6.25
2019-01-22T23:26:47.958Z,-6.29
2019-01-22T23:29:15.303Z,-6.33
2019-01-22T23:31:42.723Z,-6.37
2019-01-22T23:34:10.099Z,-6.40
2019-01-22T23:36:37.487Z,-6.46
2019-01-22T23:39:05.303Z,-6.43
2019-01-22T23:41:32.662Z,-6.48
2019-01-22T23:44:00.024Z,-6.51
2019-01-22T23:46:27.462Z,-6.53
2019-01-22T23:48:54.850Z,-6.63
2019-01-22T23:51:22.197Z,-6.66
2019-01-22T23:53:49.598Z,-6.59
2019-01-22T23:56:16.959Z,-6.55
2019-01-22T23:58:44.299Z,-6.55
